6°C Temp
6°C Dewpoint
100% Humidity
Temperature
10 KM/H
6 MPH
5 KTS
230°
South West

Wind Speed
Mostly Scattered
Clouds
Pressure 1001 (hPa) - 29.56 (in)
Visibility 6.2 (mi) - 10.0 (km)

Current Conditions
EGTK
Location Oxford (Kidlington) 26(mi)
Metar :EGTK 182120Z 23005KT 9999 SCT040 06/06 Q1001
Tue 18th December 21:20 pm

Airport
  Metar Aviation API Data Provided by https://www.checkwx.com/ PHP scripts by weather34.com ©2018